sensor_id;sensor_type;location;lat;lon;timestamp;pressure;altitude;pressure_sealevel;temperature;humidity
83514;BME280;73447;53.262;10.424;2024-01-30T00:00:06;102755.38;;;0.98;86.06
83514;BME280;73447;53.262;10.424;2024-01-30T00:02:33;102751.34;;;1.03;86.52
83514;BME280;73447;53.262;10.424;2024-01-30T00:04:58;102750.94;;;1.08;86.65
83514;BME280;73447;53.262;10.424;2024-01-30T00:07:23;102755.88;;;1.13;86.03
83514;BME280;73447;53.262;10.424;2024-01-30T00:09:49;102760.75;;;1.07;85.91
83514;BME280;73447;53.262;10.424;2024-01-30T00:12:14;102755.44;;;1.07;86.15
83514;BME280;73447;53.262;10.424;2024-01-30T00:14:41;102750.28;;;1.16;86.20
83514;BME280;73447;53.262;10.424;2024-01-30T00:17:08;102756.72;;;1.13;86.47
83514;BME280;73447;53.262;10.424;2024-01-30T00:19:33;102745.25;;;1.13;86.55
83514;BME280;73447;53.262;10.424;2024-01-30T00:21:59;102742.47;;;1.24;86.16
83514;BME280;73447;53.262;10.424;2024-01-30T00:24:24;102739.38;;;1.19;86.43
83514;BME280;73447;53.262;10.424;2024-01-30T00:26:49;102740.50;;;1.16;85.82
83514;BME280;73447;53.262;10.424;2024-01-30T00:29:15;102741.94;;;1.30;86.20
83514;BME280;73447;53.262;10.424;2024-01-30T00:31:44;102756.72;;;1.13;86.27
83514;BME280;73447;53.262;10.424;2024-01-30T00:34:10;102751.41;;;1.13;86.22
83514;BME280;73447;53.262;10.424;2024-01-30T00:36:36;102746.19;;;1.11;87.02
83514;BME280;73447;53.262;10.424;2024-01-30T00:39:01;102743.53;;;1.11;86.26
83514;BME280;73447;53.262;10.424;2024-01-30T00:41:31;102740.94;;;1.21;86.64
83514;BME280;73447;53.262;10.424;2024-01-30T00:43:56;102748.41;;;1.37;86.39
83514;BME280;73447;53.262;10.424;2024-01-30T00:46:22;102741.44;;;1.36;86.36
83514;BME280;73447;53.262;10.424;2024-01-30T00:48:47;102743.69;;;1.41;86.00
83514;BME280;73447;53.262;10.424;2024-01-30T00:51:12;102740.63;;;1.45;85.92
83514;BME280;73447;53.262;10.424;2024-01-30T00:53:38;102737.50;;;1.40;86.38
83514;BME280;73447;53.262;10.424;2024-01-30T00:56:03;102740.88;;;1.42;85.73
83514;BME280;73447;53.262;10.424;2024-01-30T00:58:29;102737.50;;;1.40;85.63
83514;BME280;73447;53.262;10.424;2024-01-30T01:00:54;102735.84;;;1.39;85.72
83514;BME280;73447;53.262;10.424;2024-01-30T01:03:19;102742.47;;;1.24;86.46
83514;BME280;73447;53.262;10.424;2024-01-30T01:05:45;102742.84;;;1.40;85.89
83514;BME280;73447;53.262;10.424;2024-01-30T01:08:10;102739.56;;;1.58;85.71
83514;BME280;73447;53.262;10.424;2024-01-30T01:10:35;102748.16;;;1.40;86.10
83514;BME280;73447;53.262;10.424;2024-01-30T01:13:01;102741.44;;;1.36;86.51
83514;BME280;73447;53.262;10.424;2024-01-30T01:15:26;102743.06;;;1.27;86.31
83514;BME280;73447;53.262;10.424;2024-01-30T01:17:51;102746.50;;;1.49;86.24
83514;BME280;73447;53.262;10.424;2024-01-30T01:20:17;102735.53;;;1.42;85.38
83514;BME280;73447;53.262;10.424;2024-01-30T01:22:42;102737.50;;;1.40;85.56
83514;BME280;73447;53.262;10.424;2024-01-30T01:25:08;102736.25;;;1.35;86.33
83514;BME280;73447;53.262;10.424;2024-01-30T01:27:35;102733.56;;;1.35;86.08
83514;BME280;73447;53.262;10.424;2024-01-30T01:30:07;102731.31;;;1.30;85.51
83514;BME280;73447;53.262;10.424;2024-01-30T01:32:34;102734.50;;;1.24;86.46
83514;BME280;73447;53.262;10.424;2024-01-30T01:34:59;102732.44;;;1.27;86.06
83514;BME280;73447;53.262;10.424;2024-01-30T01:37:24;102732.56;;;1.36;86.65
83514;BME280;73447;53.262;10.424;2024-01-30T01:39:52;102730.78;;;1.36;85.74
83514;BME280;73447;53.262;10.424;2024-01-30T01:42:17;102731.91;;;1.43;86.46
83514;BME280;73447;53.262;10.424;2024-01-30T01:44:42;102735.03;;;1.48;86.08
83514;BME280;73447;53.262;10.424;2024-01-30T01:47:08;102733.19;;;1.39;85.82
83514;BME280;73447;53.262;10.424;2024-01-30T01:49:33;102732.41;;;1.58;85.56
83514;BME280;73447;53.262;10.424;2024-01-30T01:51:59;102726.06;;;1.50;85.76
83514;BME280;73447;53.262;10.424;2024-01-30T01:54:26;102731.41;;;1.50;85.94
83514;BME280;73447;53.262;10.424;2024-01-30T01:56:53;102732.25;;;1.60;85.14
83514;BME280;73447;53.262;10.424;2024-01-30T01:59:20;102723.94;;;1.43;86.06
83514;BME280;73447;53.262;10.424;2024-01-30T02:01:47;102730.53;;;1.49;85.23
83514;BME280;73447;53.262;10.424;2024-01-30T02:04:15;102721.19;;;1.55;85.65
83514;BME280;73447;53.262;10.424;2024-01-30T02:06:41;102723.81;;;1.45;84.84
83514;BME280;73447;53.262;10.424;2024-01-30T02:09:06;102709.78;;;1.43;85.41
83514;BME280;73447;53.262;10.424;2024-01-30T02:11:32;102708.88;;;1.23;85.59
83514;BME280;73447;53.262;10.424;2024-01-30T02:14:02;102715.34;;;1.30;85.47
83514;BME280;73447;53.262;10.424;2024-01-30T02:16:27;102706.66;;;1.28;85.56
83514;BME280;73447;53.262;10.424;2024-01-30T02:18:53;102709.66;;;1.14;86.31
83514;BME280;73447;53.262;10.424;2024-01-30T02:21:19;102701.28;;;1.18;86.40
83514;BME280;73447;53.262;10.424;2024-01-30T02:23:46;102702.09;;;1.09;86.57
83514;BME280;73447;53.262;10.424;2024-01-30T02:26:12;102705.31;;;1.13;86.21
83514;BME280;73447;53.262;10.424;2024-01-30T02:28:38;102698.03;;;1.15;86.52
83514;BME280;73447;53.262;10.424;2024-01-30T02:31:04;102700.19;;;1.21;86.85
83514;BME280;73447;53.262;10.424;2024-01-30T02:33:29;102690.09;;;1.24;86.06
83514;BME280;73447;53.262;10.424;2024-01-30T02:35:55;102696.53;;;1.22;86.14
83514;BME280;73447;53.262;10.424;2024-01-30T02:38:20;102690.75;;;1.17;86.93
83514;BME280;73447;53.262;10.424;2024-01-30T02:40:45;102691.72;;;1.16;87.25
83514;BME280;73447;53.262;10.424;2024-01-30T02:43:11;102686.13;;;1.19;86.37
83514;BME280;73447;53.262;10.424;2024-01-30T02:45:37;102690.66;;;1.28;87.12
83514;BME280;73447;53.262;10.424;2024-01-30T02:48:02;102676.94;;;1.23;86.70
83514;BME280;73447;53.262;10.424;2024-01-30T02:50:28;102685.00;;;1.11;87.62
83514;BME280;73447;53.262;10.424;2024-01-30T02:52:53;102678.06;;;1.30;86.73
83514;BME280;73447;53.262;10.424;2024-01-30T02:55:18;102669.41;;;1.38;87.23
83514;BME280;73447;53.262;10.424;2024-01-30T02:57:44;102681.53;;;1.61;86.64
83514;BME280;73447;53.262;10.424;2024-01-30T03:00:10;102680.97;;;1.77;85.94
83514;BME280;73447;53.262;10.424;2024-01-30T03:02:36;102680.72;;;1.80;85.61
83514;BME280;73447;53.262;10.424;2024-01-30T03:05:02;102683.38;;;1.80;85.66
83514;BME280;73447;53.262;10.424;2024-01-30T03:07:29;102672.84;;;1.69;86.35
83514;BME280;73447;53.262;10.424;2024-01-30T03:09:54;102667.09;;;1.64;86.26
83514;BME280;73447;53.262;10.424;2024-01-30T03:12:21;102671.41;;;1.55;86.74
83514;BME280;73447;53.262;10.424;2024-01-30T03:14:46;102667.78;;;1.56;86.43
83514;BME280;73447;53.262;10.424;2024-01-30T03:17:11;102663.56;;;1.54;86.92
83514;BME280;73447;53.262;10.424;2024-01-30T03:19:37;102665.78;;;1.48;86.67
83514;BME280;73447;53.262;10.424;2024-01-30T03:22:02;102665.53;;;1.52;86.53
83514;BME280;73447;53.262;10.424;2024-01-30T03:24:28;102666.22;;;1.54;86.49
83514;BME280;73447;53.262;10.424;2024-01-30T03:26:53;102660.44;;;1.39;87.00
83514;BME280;73447;53.262;10.424;2024-01-30T03:29:18;102657.91;;;1.37;87.31
83514;BME280;73447;53.262;10.424;2024-01-30T03:31:44;102658.19;;;1.44;86.98
83514;BME280;73447;53.262;10.424;2024-01-30T03:34:09;102663.81;;;1.51;86.93
83514;BME280;73447;53.262;10.424;2024-01-30T03:36:35;102652.47;;;1.48;86.56
83514;BME280;73447;53.262;10.424;2024-01-30T03:39:01;102654.56;;;1.45;87.35
83514;BME280;73447;53.262;10.424;2024-01-30T03:41:26;102648.41;;;1.44;87.50
83514;BME280;73447;53.262;10.424;2024-01-30T03:43:51;102650.66;;;1.49;87.17
83514;BME280;73447;53.262;10.424;2024-01-30T03:46:17;102650.13;;;1.65;87.72
83514;BME280;73447;53.262;10.424;2024-01-30T03:48:43;102643.25;;;1.53;87.84
83514;BME280;73447;53.262;10.424;2024-01-30T03:51:08;102647.84;;;1.51;88.07
83514;BME280;73447;53.262;10.424;2024-01-30T03:53:34;102650.56;;;1.70;87.41
83514;BME280;73447;53.262;10.424;2024-01-30T03:56:00;102645.91;;;1.53;87.88
83514;BME280;73447;53.262;10.424;2024-01-30T03:58:26;102643.09;;;1.44;87.78
83514;BME280;73447;53.262;10.424;2024-01-30T04:00:51;102644.75;;;1.45;88.49
83514;BME280;73447;53.262;10.424;2024-01-30T04:03:17;102639.59;;;1.54;87.41
83514;BME280;73447;53.262;10.424;2024-01-30T04:05:42;102642.25;;;1.54;87.43
83514;BME280;73447;53.262;10.424;2024-01-30T04:08:08;102642.41;;;1.62;87.46
83514;BME280;73447;53.262;10.424;2024-01-30T04:10:34;102646.94;;;1.71;86.98
83514;BME280;73447;53.262;10.424;2024-01-30T04:12:59;102649.88;;;1.88;86.91
83514;BME280;73447;53.262;10.424;2024-01-30T04:15:26;102643.72;;;1.97;86.56
83514;BME280;73447;53.262;10.424;2024-01-30T04:17:51;102639.22;;;1.88;86.00
83514;BME280;73447;53.262;10.424;2024-01-30T04:20:17;102638.09;;;1.90;86.01
83514;BME280;73447;53.262;10.424;2024-01-30T04:22:46;102644.25;;;1.91;86.37
83514;BME280;73447;53.262;10.424;2024-01-30T04:25:12;102635.13;;;1.74;87.51
83514;BME280;73447;53.262;10.424;2024-01-30T04:27:38;102635.28;;;1.82;86.83
83514;BME280;73447;53.262;10.424;2024-01-30T04:30:04;102639.91;;;1.70;86.65
83514;BME280;73447;53.262;10.424;2024-01-30T04:32:29;102636.69;;;1.66;87.40
83514;BME280;73447;53.262;10.424;2024-01-30T04:34:54;102638.38;;;1.87;86.45
83514;BME280;73447;53.262;10.424;2024-01-30T04:37:20;102638.38;;;1.77;86.60
83514;BME280;73447;53.262;10.424;2024-01-30T04:39:45;102638.09;;;1.80;86.67
83514;BME280;73447;53.262;10.424;2024-01-30T04:42:11;102643.97;;;1.74;87.02
83514;BME280;73447;53.262;10.424;2024-01-30T04:44:36;102642.56;;;1.70;87.91
83514;BME280;73447;53.262;10.424;2024-01-30T04:47:01;102644.81;;;1.75;87.49
83514;BME280;73447;53.262;10.424;2024-01-30T04:49:27;102642.16;;;1.75;87.59
83514;BME280;73447;53.262;10.424;2024-01-30T04:51:54;102646.63;;;1.74;87.88
83514;BME280;73447;53.262;10.424;2024-01-30T04:54:19;102641.97;;;1.57;87.82
83514;BME280;73447;53.262;10.424;2024-01-30T04:56:45;102640.59;;;1.62;88.26
83514;BME280;73447;53.262;10.424;2024-01-30T04:59:10;102634.41;;;1.62;88.12
83514;BME280;73447;53.262;10.424;2024-01-30T05:01:35;102633.31;;;1.64;87.76
83514;BME280;73447;53.262;10.424;2024-01-30T05:04:01;102632.44;;;1.44;87.92
83514;BME280;73447;53.262;10.424;2024-01-30T05:06:27;102638.63;;;1.55;88.62
83514;BME280;73447;53.262;10.424;2024-01-30T05:08:53;102642.94;;;1.56;88.78
83514;BME280;73447;53.262;10.424;2024-01-30T05:11:19;102637.19;;;1.41;88.94
83514;BME280;73447;53.262;10.424;2024-01-30T05:13:44;102643.41;;;1.20;89.12
83514;BME280;73447;53.262;10.424;2024-01-30T05:16:10;102641.50;;;1.32;89.46
83514;BME280;73447;53.262;10.424;2024-01-30T05:18:35;102634.34;;;1.23;89.72
83514;BME280;73447;53.262;10.424;2024-01-30T05:21:02;102637.44;;;1.28;89.49
83514;BME280;73447;53.262;10.424;2024-01-30T05:23:27;102643.28;;;1.22;89.41
83514;BME280;73447;53.262;10.424;2024-01-30T05:25:53;102643.19;;;1.33;89.22
83514;BME280;73447;53.262;10.424;2024-01-30T05:28:18;102645.84;;;1.33;89.05
83514;BME280;73447;53.262;10.424;2024-01-30T05:30:43;102649.22;;;1.35;89.33
83514;BME280;73447;53.262;10.424;2024-01-30T05:33:09;102640.00;;;1.39;89.68
83514;BME280;73447;53.262;10.424;2024-01-30T05:35:34;102641.94;;;1.37;89.55
83514;BME280;73447;53.262;10.424;2024-01-30T05:38:00;102639.84;;;1.31;89.78
83514;BME280;73447;53.262;10.424;2024-01-30T05:40:25;102629.84;;;1.23;89.75
83514;BME280;73447;53.262;10.424;2024-01-30T05:42:51;102630.13;;;1.20;90.14
83514;BME280;73447;53.262;10.424;2024-01-30T05:45:16;102628.44;;;1.19;89.39
83514;BME280;73447;53.262;10.424;2024-01-30T05:47:41;102624.44;;;1.04;89.71
83514;BME280;73447;53.262;10.424;2024-01-30T05:50:07;102628.88;;;0.93;89.72
83514;BME280;73447;53.262;10.424;2024-01-30T05:52:32;102630.16;;;0.89;89.47
83514;BME280;73447;53.262;10.424;2024-01-30T05:54:58;102628.06;;;0.93;90.13
83514;BME280;73447;53.262;10.424;2024-01-30T05:57:23;102617.16;;;0.96;89.42
83514;BME280;73447;53.262;10.424;2024-01-30T05:59:48;102619.38;;;0.91;90.11
83514;BME280;73447;53.262;10.424;2024-01-30T06:02:16;102621.66;;;0.96;89.99
83514;BME280;73447;53.262;10.424;2024-01-30T06:04:42;102627.22;;;0.92;90.10
83514;BME280;73447;53.262;10.424;2024-01-30T06:07:07;102625.97;;;0.97;90.37
83514;BME280;73447;53.262;10.424;2024-01-30T06:09:33;102622.09;;;1.01;89.65
83514;BME280;73447;53.262;10.424;2024-01-30T06:11:58;102618.03;;;1.06;89.90
83514;BME280;73447;53.262;10.424;2024-01-30T06:14:24;102615.91;;;1.00;89.83
83514;BME280;73447;53.262;10.424;2024-01-30T06:16:49;102617.75;;;0.79;89.53
83514;BME280;73447;53.262;10.424;2024-01-30T06:19:15;102613.13;;;0.71;89.96
83514;BME280;73447;53.262;10.424;2024-01-30T06:21:40;102610.50;;;0.81;90.41
83514;BME280;73447;53.262;10.424;2024-01-30T06:24:06;102603.09;;;0.84;90.38
83514;BME280;73447;53.262;10.424;2024-01-30T06:26:31;102609.00;;;0.88;90.58
83514;BME280;73447;53.262;10.424;2024-01-30T06:28:57;102598.34;;;0.88;90.50
83514;BME280;73447;53.262;10.424;2024-01-30T06:31:22;102609.56;;;0.91;90.86
83514;BME280;73447;53.262;10.424;2024-01-30T06:33:47;102602.84;;;0.97;90.90
83514;BME280;73447;53.262;10.424;2024-01-30T06:36:13;102608.78;;;1.01;90.34
83514;BME280;73447;53.262;10.424;2024-01-30T06:38:39;102608.72;;;0.91;90.38
83514;BME280;73447;53.262;10.424;2024-01-30T06:41:04;102597.41;;;0.89;90.69
83514;BME280;73447;53.262;10.424;2024-01-30T06:43:30;102594.03;;;0.97;90.59
83514;BME280;73447;53.262;10.424;2024-01-30T06:45:55;102587.97;;;0.85;90.15
83514;BME280;73447;53.262;10.424;2024-01-30T06:48:20;102586.28;;;0.84;90.18
83514;BME280;73447;53.262;10.424;2024-01-30T06:50:46;102592.38;;;0.96;90.50
83514;BME280;73447;53.262;10.424;2024-01-30T06:53:13;102581.03;;;1.03;89.45
83514;BME280;73447;53.262;10.424;2024-01-30T06:55:38;102588.09;;;1.24;89.89
83514;BME280;73447;53.262;10.424;2024-01-30T06:58:03;102588.13;;;1.34;88.73
83514;BME280;73447;53.262;10.424;2024-01-30T07:00:29;102589.84;;;1.44;88.87
83514;BME280;73447;53.262;10.424;2024-01-30T07:02:54;102588.44;;;1.60;88.49
83514;BME280;73447;53.262;10.424;2024-01-30T07:05:19;102587.88;;;1.56;87.45
83514;BME280;73447;53.262;10.424;2024-01-30T07:07:47;102586.47;;;1.62;87.29
83514;BME280;73447;53.262;10.424;2024-01-30T07:10:12;102589.13;;;1.52;87.43
83514;BME280;73447;53.262;10.424;2024-01-30T07:12:37;102588.72;;;1.57;88.37
83514;BME280;73447;53.262;10.424;2024-01-30T07:15:03;102582.13;;;1.61;89.23
83514;BME280;73447;53.262;10.424;2024-01-30T07:17:29;102583.66;;;1.54;89.29
83514;BME280;73447;53.262;10.424;2024-01-30T07:19:54;102580.00;;;1.35;89.01
83514;BME280;73447;53.262;10.424;2024-01-30T07:22:20;102587.00;;;1.26;89.43
83514;BME280;73447;53.262;10.424;2024-01-30T07:24:45;102577.03;;;1.19;89.82
83514;BME280;73447;53.262;10.424;2024-01-30T07:27:13;102589.53;;;1.38;90.89
83514;BME280;73447;53.262;10.424;2024-01-30T07:29:39;102586.47;;;1.52;89.47
83514;BME280;73447;53.262;10.424;2024-01-30T07:32:05;102589.00;;;1.54;89.85
83514;BME280;73447;53.262;10.424;2024-01-30T07:34:30;102595.75;;;1.58;90.62
83514;BME280;73447;53.262;10.424;2024-01-30T07:36:56;102594.34;;;1.63;89.75
83514;BME280;73447;53.262;10.424;2024-01-30T07:39:21;102586.63;;;1.60;89.80
83514;BME280;73447;53.262;10.424;2024-01-30T07:41:46;102590.69;;;1.74;89.85
83514;BME280;73447;53.262;10.424;2024-01-30T07:44:12;102594.63;;;1.99;88.97
83514;BME280;73447;53.262;10.424;2024-01-30T07:46:37;102597.72;;;1.95;89.65
83514;BME280;73447;53.262;10.424;2024-01-30T07:49:03;102588.44;;;2.18;89.19
83514;BME280;73447;53.262;10.424;2024-01-30T07:51:28;102586.59;;;2.19;88.89
83514;BME280;73447;53.262;10.424;2024-01-30T07:53:54;102573.00;;;2.22;88.16
83514;BME280;73447;53.262;10.424;2024-01-30T07:56:20;102580.03;;;2.23;88.36
83514;BME280;73447;53.262;10.424;2024-01-30T07:58:45;102576.06;;;2.27;88.81
83514;BME280;73447;53.262;10.424;2024-01-30T08:01:11;102572.81;;;2.43;88.04
83514;BME280;73447;53.262;10.424;2024-01-30T08:03:36;102571.38;;;2.49;87.82
83514;BME280;73447;53.262;10.424;2024-01-30T08:06:02;102571.66;;;2.46;87.69
83514;BME280;73447;53.262;10.424;2024-01-30T08:08:28;102574.25;;;2.75;87.58
83514;BME280;73447;53.262;10.424;2024-01-30T08:10:53;102578.59;;;2.76;87.64
83514;BME280;73447;53.262;10.424;2024-01-30T08:13:19;102575.06;;;2.85;87.66
83514;BME280;73447;53.262;10.424;2024-01-30T08:15:44;102582.50;;;3.09;87.37
83514;BME280;73447;53.262;10.424;2024-01-30T08:18:09;102574.31;;;3.21;86.65
83514;BME280;73447;53.262;10.424;2024-01-30T08:20:35;102571.03;;;3.45;86.00
83514;BME280;73447;53.262;10.424;2024-01-30T08:23:00;102568.09;;;3.66;85.15
83514;BME280;73447;53.262;10.424;2024-01-30T08:25:26;102566.72;;;3.80;84.59
83514;BME280;73447;53.262;10.424;2024-01-30T08:27:51;102567.09;;;3.85;84.03
83514;BME280;73447;53.262;10.424;2024-01-30T08:30:17;102571.22;;;3.97;83.52
83514;BME280;73447;53.262;10.424;2024-01-30T08:32:42;102562.91;;;4.08;83.84
83514;BME280;73447;53.262;10.424;2024-01-30T08:35:07;102562.91;;;4.08;83.52
83514;BME280;73447;53.262;10.424;2024-01-30T08:37:34;102561.34;;;3.98;83.99
83514;BME280;73447;53.262;10.424;2024-01-30T08:39:59;102568.56;;;4.05;83.98
83514;BME280;73447;53.262;10.424;2024-01-30T08:42:25;102555.41;;;4.12;83.90
83514;BME280;73447;53.262;10.424;2024-01-30T08:44:51;102564.97;;;4.15;83.33
83514;BME280;73447;53.262;10.424;2024-01-30T08:47:18;102560.44;;;4.33;83.01
83514;BME280;73447;53.262;10.424;2024-01-30T08:49:44;102565.47;;;4.36;83.08
83514;BME280;73447;53.262;10.424;2024-01-30T08:52:13;102557.50;;;4.44;83.10
83514;BME280;73447;53.262;10.424;2024-01-30T08:54:38;102560.59;;;4.58;81.98
83514;BME280;73447;53.262;10.424;2024-01-30T08:57:04;102565.31;;;4.72;81.70
83514;BME280;73447;53.262;10.424;2024-01-30T08:59:29;102561.34;;;4.76;81.62
83514;BME280;73447;53.262;10.424;2024-01-30T09:01:55;102557.00;;;4.83;81.38
83514;BME280;73447;53.262;10.424;2024-01-30T09:04:24;102568.19;;;5.13;80.32
83514;BME280;73447;53.262;10.424;2024-01-30T09:06:49;102562.78;;;5.05;80.53
83514;BME280;73447;53.262;10.424;2024-01-30T09:09:15;102557.72;;;4.94;81.69
83514;BME280;73447;53.262;10.424;2024-01-30T09:11:40;102554.44;;;5.08;81.42
83514;BME280;73447;53.262;10.424;2024-01-30T09:14:06;102555.59;;;5.06;81.18
83514;BME280;73447;53.262;10.424;2024-01-30T09:16:32;102549.72;;;5.02;81.56
83514;BME280;73447;53.262;10.424;2024-01-30T09:18:57;102543.38;;;5.03;82.44
83514;BME280;73447;53.262;10.424;2024-01-30T09:21:23;102537.50;;;5.08;81.45
83514;BME280;73447;53.262;10.424;2024-01-30T09:23:48;102537.28;;;5.44;81.58
83514;BME280;73447;53.262;10.424;2024-01-30T09:26:13;102531.75;;;5.45;80.98
83514;BME280;73447;53.262;10.424;2024-01-30T09:28:39;102539.63;;;5.71;80.31
83514;BME280;73447;53.262;10.424;2024-01-30T09:31:09;102544.81;;;5.81;80.80
83514;BME280;73447;53.262;10.424;2024-01-30T09:33:35;102543.88;;;5.99;79.96
83514;BME280;73447;53.262;10.424;2024-01-30T09:36:01;102552.03;;;5.81;79.80
83514;BME280;73447;53.262;10.424;2024-01-30T09:38:26;102549.56;;;6.04;79.40
83514;BME280;73447;53.262;10.424;2024-01-30T09:40:54;102545.84;;;6.21;78.42
83514;BME280;73447;53.262;10.424;2024-01-30T09:43:23;102539.78;;;6.44;77.84
83514;BME280;73447;53.262;10.424;2024-01-30T09:45:50;102537.34;;;6.65;77.65
83514;BME280;73447;53.262;10.424;2024-01-30T09:48:16;102531.34;;;6.95;75.72
83514;BME280;73447;53.262;10.424;2024-01-30T09:50:41;102531.56;;;6.85;76.50
83514;BME280;73447;53.262;10.424;2024-01-30T09:53:08;102533.66;;;6.66;75.25
83514;BME280;73447;53.262;10.424;2024-01-30T09:55:35;102533.50;;;6.99;76.02
83514;BME280;73447;53.262;10.424;2024-01-30T09:58:01;102539.31;;;7.11;76.05
83514;BME280;73447;53.262;10.424;2024-01-30T10:00:27;102538.13;;;7.14;75.00
83514;BME280;73447;53.262;10.424;2024-01-30T10:02:53;102531.31;;;7.34;74.40
83514;BME280;73447;53.262;10.424;2024-01-30T10:05:19;102532.41;;;6.85;76.01
83514;BME280;73447;53.262;10.424;2024-01-30T10:07:55;102533.81;;;7.04;74.85
83514;BME280;73447;53.262;10.424;2024-01-30T10:10:22;102534.59;;;7.13;75.04
83514;BME280;73447;53.262;10.424;2024-01-30T10:12:48;102538.75;;;7.24;74.24
83514;BME280;73447;53.262;10.424;2024-01-30T10:15:14;102537.88;;;7.55;73.71
83514;BME280;73447;53.262;10.424;2024-01-30T10:17:40;102541.53;;;7.08;75.41
83514;BME280;73447;53.262;10.424;2024-01-30T10:20:06;102529.22;;;7.45;74.30
83514;BME280;73447;53.262;10.424;2024-01-30T10:22:33;102529.41;;;7.66;73.13
83514;BME280;73447;53.262;10.424;2024-01-30T10:24:59;102520.50;;;7.80;72.39
83514;BME280;73447;53.262;10.424;2024-01-30T10:27:26;102531.22;;;7.66;73.46
83514;BME280;73447;53.262;10.424;2024-01-30T10:29:52;102530.09;;;7.83;72.69
83514;BME280;73447;53.262;10.424;2024-01-30T10:32:17;102528.75;;;8.02;72.74
83514;BME280;73447;53.262;10.424;2024-01-30T10:34:43;102525.31;;;8.08;71.95
83514;BME280;73447;53.262;10.424;2024-01-30T10:37:09;102516.25;;;7.71;72.49
83514;BME280;73447;53.262;10.424;2024-01-30T10:39:41;102518.13;;;7.86;71.91
83514;BME280;73447;53.262;10.424;2024-01-30T10:42:14;102506.03;;;8.34;70.69
83514;BME280;73447;53.262;10.424;2024-01-30T10:47:11;102490.53;;;8.22;69.93
83514;BME280;73447;53.262;10.424;2024-01-30T10:49:39;102497.72;;;8.44;70.77
83514;BME280;73447;53.262;10.424;2024-01-30T10:52:07;102498.25;;;8.54;70.02
83514;BME280;73447;53.262;10.424;2024-01-30T10:54:34;102493.97;;;8.75;70.36
83514;BME280;73447;53.262;10.424;2024-01-30T10:57:01;102493.38;;;8.95;70.23
83514;BME280;73447;53.262;10.424;2024-01-30T10:59:30;102490.28;;;8.98;69.00
83514;BME280;73447;53.262;10.424;2024-01-30T11:01:57;102487.41;;;8.99;69.18
83514;BME280;73447;53.262;10.424;2024-01-30T11:04:24;102485.94;;;9.18;68.97
83514;BME280;73447;53.262;10.424;2024-01-30T11:06:50;102486.59;;;8.99;70.20
83514;BME280;73447;53.262;10.424;2024-01-30T11:09:17;102484.28;;;8.96;69.58
83514;BME280;73447;53.262;10.424;2024-01-30T11:11:49;102488.09;;;8.86;69.95
83514;BME280;73447;53.262;10.424;2024-01-30T11:14:15;102483.63;;;9.30;69.19
83514;BME280;73447;53.262;10.424;2024-01-30T11:16:40;102482.25;;;9.41;69.44
83514;BME280;73447;53.262;10.424;2024-01-30T11:19:10;102478.00;;;9.53;68.76
83514;BME280;73447;53.262;10.424;2024-01-30T11:21:42;102478.78;;;9.47;68.69
83514;BME280;73447;53.262;10.424;2024-01-30T11:24:08;102488.91;;;9.66;67.39
83514;BME280;73447;53.262;10.424;2024-01-30T11:26:33;102476.53;;;9.51;68.67
83514;BME280;73447;53.262;10.424;2024-01-30T11:29:03;102481.97;;;9.79;68.02
83514;BME280;73447;53.262;10.424;2024-01-30T11:31:29;102473.03;;;9.57;69.59
83514;BME280;73447;53.262;10.424;2024-01-30T11:33:56;102471.41;;;9.56;70.03
83514;BME280;73447;53.262;10.424;2024-01-30T11:36:26;102469.97;;;9.60;68.34
83514;BME280;73447;53.262;10.424;2024-01-30T11:38:54;102471.16;;;9.79;68.20
83514;BME280;73447;53.262;10.424;2024-01-30T11:41:20;102463.88;;;9.29;68.90
83514;BME280;73447;53.262;10.424;2024-01-30T11:43:52;102461.44;;;9.13;70.28
83514;BME280;73447;53.262;10.424;2024-01-30T11:46:18;102477.97;;;9.75;69.87
83514;BME280;73447;53.262;10.424;2024-01-30T11:48:43;102471.34;;;9.49;69.58
83514;BME280;73447;53.262;10.424;2024-01-30T11:51:09;102472.16;;;9.99;69.84
83514;BME280;73447;53.262;10.424;2024-01-30T11:53:34;102471.66;;;10.17;68.01
83514;BME280;73447;53.262;10.424;2024-01-30T11:55:59;102469.13;;;10.44;67.60
83514;BME280;73447;53.262;10.424;2024-01-30T11:58:25;102471.00;;;10.15;67.70
83514;BME280;73447;53.262;10.424;2024-01-30T12:00:57;102472.19;;;10.34;66.89
83514;BME280;73447;53.262;10.424;2024-01-30T12:03:23;102469.03;;;10.31;67.73
83514;BME280;73447;53.262;10.424;2024-01-30T12:05:55;102458.31;;;10.44;66.52
83514;BME280;73447;53.262;10.424;2024-01-30T12:08:21;102470.53;;;10.40;67.14
83514;BME280;73447;53.262;10.424;2024-01-30T12:10:55;102465.53;;;10.09;67.74
83514;BME280;73447;53.262;10.424;2024-01-30T12:13:20;102458.22;;;10.31;67.34
83514;BME280;73447;53.262;10.424;2024-01-30T12:15:46;102462.22;;;10.07;67.70
83514;BME280;73447;53.262;10.424;2024-01-30T12:18:11;102453.34;;;10.13;67.86
83514;BME280;73447;53.262;10.424;2024-01-30T12:20:37;102456.47;;;10.16;68.28
83514;BME280;73447;53.262;10.424;2024-01-30T12:23:02;102451.09;;;10.23;67.40
83514;BME280;73447;53.262;10.424;2024-01-30T12:25:28;102449.81;;;10.12;68.03
83514;BME280;73447;53.262;10.424;2024-01-30T12:27:53;102448.09;;;10.05;69.08
83514;BME280;73447;53.262;10.424;2024-01-30T12:30:20;102443.63;;;10.25;67.90
83514;BME280;73447;53.262;10.424;2024-01-30T12:32:47;102442.94;;;10.10;69.02
83514;BME280;73447;53.262;10.424;2024-01-30T12:35:14;102445.38;;;10.05;68.77
83514;BME280;73447;53.262;10.424;2024-01-30T12:37:40;102456.97;;;9.98;68.53
83514;BME280;73447;53.262;10.424;2024-01-30T12:40:07;102460.03;;;10.24;68.29
83514;BME280;73447;53.262;10.424;2024-01-30T12:42:33;102448.22;;;10.25;68.22
83514;BME280;73447;53.262;10.424;2024-01-30T12:44:59;102457.63;;;10.35;67.31